Time;durP1;ratioP1;P1;durP2;ratioP2;P2;SDS_P1;SDS_P2;PMS_P1;PMS_P2;Temp;Humidity;BMP_temperature;BMP_pressure;BME280_temperature;BME280_humidity;BME280_pressure;Samples;Min_cycle;Max_cycle;Signal;HPM_P1;HPM_P2
2022/06/15 00:01:42;;;;;;;3.40;1.63;;;;;;;16.14;52.95;100623.60;1770431;80;22176;-68
2022/06/15 00:04:08;;;;;;;4.10;1.80;;;;;;;16.11;53.26;100623.63;1789597;78;21315;-67
2022/06/15 00:06:39;;;;;;;3.80;1.50;;;;;;;16.09;53.57;100623.14;1792154;78;21088;-67
2022/06/15 00:09:07;;;;;;;5.83;1.87;;;;;;;16.08;53.78;100624.77;1791151;78;21269;-68
2022/06/15 00:11:40;;;;;;;4.13;1.90;;;;;;;16.06;53.80;100622.38;1791705;78;21224;-68
2022/06/15 00:14:14;;;;;;;3.20;2.00;;;;;;;16.06;53.78;100619.69;1789611;78;21144;-67
2022/06/15 00:16:41;;;;;;;3.57;1.80;;;;;;;16.07;53.83;100621.28;1790915;78;21223;-67
2022/06/15 00:19:10;;;;;;;4.07;1.90;;;;;;;16.06;54.03;100618.34;1792513;78;22776;-68
2022/06/15 00:21:36;;;;;;;3.27;1.80;;;;;;;16.06;53.99;100623.73;1793113;78;21559;-67
2022/06/15 00:24:04;;;;;;;3.27;1.70;;;;;;;16.06;53.81;100621.58;1788451;78;21290;-66
2022/06/15 00:26:31;;;;;;;5.47;2.07;;;;;;;16.05;53.85;100620.76;1791397;78;21851;-68
2022/06/15 00:28:57;;;;;;;5.10;2.10;;;;;;;16.05;53.77;100620.76;1790803;78;21349;-68
2022/06/15 00:31:24;;;;;;;4.07;2.10;;;;;;;16.06;53.59;100621.03;1790503;78;21361;-68
2022/06/15 00:33:50;;;;;;;3.87;1.97;;;;;;;16.06;53.62;100617.55;1790192;78;21348;-67
2022/06/15 00:36:20;;;;;;;4.43;2.33;;;;;;;16.06;53.65;100618.34;1773901;79;21367;-69
2022/06/15 00:38:54;;;;;;;3.83;1.83;;;;;;;16.09;53.87;100615.58;1774705;79;21277;-69
2022/06/15 00:41:25;;;;;;;3.13;1.57;;;;;;;16.09;53.81;100615.06;1790196;78;21369;-68
2022/06/15 00:43:56;;;;;;;4.60;2.17;;;;;;;16.10;53.81;100614.52;1787987;78;21806;-68
2022/06/15 00:46:39;;;;;;;3.63;1.80;;;;;;;16.09;53.86;100609.67;1791738;78;21696;-68
2022/06/15 00:49:15;;;;;;;4.00;1.70;;;;;;;16.09;53.69;100616.93;1771337;79;21298;-67
2022/06/15 00:51:42;;;;;;;4.23;1.93;;;;;;;16.09;53.75;100617.76;1784953;78;21802;-68
2022/06/15 00:54:09;;;;;;;4.87;1.67;;;;;;;16.11;53.88;100618.25;1760421;78;21261;-68
2022/06/15 00:56:37;;;;;;;5.57;2.43;;;;;;;16.11;53.81;100614.20;1791914;78;21211;-68
2022/06/15 00:59:12;;;;;;;4.90;2.00;;;;;;;16.11;53.48;100614.75;1792629;78;21433;-68
2022/06/15 01:01:40;;;;;;;4.27;1.90;;;;;;;16.09;53.09;100612.89;1788103;78;21252;-67
2022/06/15 01:04:07;;;;;;;4.87;2.07;;;;;;;16.09;53.21;100622.31;1792906;79;21172;-68
2022/06/15 01:06:55;;;;;;;5.17;1.87;;;;;;;16.05;53.45;100617.27;1788381;79;21131;-68
2022/06/15 01:09:27;;;;;;;3.70;2.00;;;;;;;16.00;53.53;100620.84;1787935;79;21341;-68
2022/06/15 01:12:11;;;;;;;5.27;1.80;;;;;;;15.96;53.40;100619.83;1789140;77;21727;-69
2022/06/15 01:15:15;;;;;;;4.37;1.90;;;;;;;15.94;53.67;100624.16;1620329;80;10000333;-67
2022/06/15 01:17:58;;;;;;;4.57;1.80;;;;;;;15.91;53.70;100626.08;1787932;80;20930;-69
2022/06/15 01:20:48;;;;;;;5.65;2.20;;;;;;;15.89;53.67;100620.20;1779687;80;21262;-67
2022/06/15 01:23:33;;;;;;;5.10;2.00;;;;;;;15.90;53.78;100620.99;1789305;79;21053;-68
2022/06/15 01:26:28;;;;;;;4.00;1.90;;;;;;;15.88;53.97;100631.25;1790585;80;21177;-67
2022/06/15 01:28:59;;;;;;;4.17;1.90;;;;;;;15.85;53.74;100627.78;1790038;80;21531;-67
2022/06/15 01:31:37;;;;;;;4.90;1.90;;;;;;;15.83;53.78;100629.44;1770656;79;21051;-67
2022/06/15 01:34:28;;;;;;;4.13;2.30;;;;;;;15.79;53.76;100632.98;1792133;78;21333;-68
2022/06/15 01:37:07;;;;;;;4.07;2.03;;;;;;;15.76;53.96;100637.59;1777372;78;21369;-68
2022/06/15 01:40:00;;;;;;;5.17;2.30;;;;;;;15.71;54.16;100635.23;1791258;78;21684;-68
2022/06/15 01:42:48;;;;;;;6.53;2.20;;;;;;;15.68;54.37;100635.80;1790933;78;21365;-68
2022/06/15 01:45:19;;;;;;;5.27;2.10;;;;;;;15.64;54.63;100644.19;1790664;78;21311;-68
2022/06/15 01:47:48;;;;;;;5.50;2.02;;;;;;;15.59;54.97;100637.50;1790902;78;21389;-67
2022/06/15 01:50:21;;;;;;;5.57;2.20;;;;;;;15.59;55.02;100642.89;1791854;78;21177;-68
2022/06/15 01:53:00;;;;;;;5.83;2.07;;;;;;;15.57;54.88;100649.12;1788303;78;21106;-67
2022/06/15 01:55:36;;;;;;;5.37;2.00;;;;;;;15.54;54.62;100648.34;1717641;81;21529;-68
2022/06/15 01:58:09;;;;;;;9.70;2.23;;;;;;;15.55;54.63;100651.84;1791097;79;21237;-67
2022/06/15 02:00:37;;;;;;;5.20;2.13;;;;;;;15.55;54.61;100648.59;1783776;78;21714;-68
2022/06/15 02:03:25;;;;;;;5.90;1.70;;;;;;;15.56;54.72;100655.58;1780683;78;21318;-68
2022/06/15 02:05:57;;;;;;;5.05;2.17;;;;;;;15.54;54.38;100655.62;1666753;77;10000022;-67
2022/06/15 02:08:54;;;;;;;3.97;2.00;;;;;;;15.53;54.52;100653.48;1788311;79;21586;-67
2022/06/15 02:11:32;;;;;;;4.77;2.17;;;;;;;15.53;54.66;100652.14;1783588;79;21254;-67
2022/06/15 02:14:18;;;;;;;4.87;2.17;;;;;;;15.49;54.69;100655.13;1779738;79;21274;-67
2022/06/15 02:17:18;;;;;;;5.10;2.40;;;;;;;15.45;54.91;100656.80;1769427;80;21735;-67
2022/06/15 02:19:50;;;;;;;4.27;2.10;;;;;;;15.38;55.43;100657.69;1777531;79;21326;-67
2022/06/15 02:22:22;;;;;;;5.60;2.45;;;;;;;15.36;55.45;100662.00;1791879;78;21650;-67
2022/06/15 02:24:52;;;;;;;4.00;2.17;;;;;;;15.34;55.32;100669.57;1791020;78;21009;-66
2022/06/15 02:27:19;;;;;;;5.50;2.47;;;;;;;15.32;55.59;100676.32;1784551;79;21248;-67
2022/06/15 02:29:53;;;;;;;;;;;;;;;15.30;55.73;100671.75;1790262;79;21271;-68
2022/06/15 02:32:21;;;;;;;3.93;2.17;;;;;;;15.27;55.78;100677.19;1785308;78;21217;-67
2022/06/15 02:34:49;;;;;;;6.47;2.60;;;;;;;15.21;55.96;100672.39;1709066;80;21194;-67
2022/06/15 02:37:17;;;;;;;4.97;2.37;;;;;;;15.22;56.12;100675.88;1793181;80;21304;-68
2022/06/15 02:39:45;;;;;;;4.70;2.40;;;;;;;15.19;56.16;100674.55;1792835;79;21231;-68
2022/06/15 02:42:30;;;;;;;8.07;2.40;;;;;;;15.18;56.37;100675.65;1792567;78;21379;-69
2022/06/15 02:45:03;;;;;;;3.77;2.30;;;;;;;15.17;56.44;100678.09;1787696;79;21149;-67
2022/06/15 02:47:33;;;;;;;3.80;2.40;;;;;;;15.16;56.25;100677.02;1791279;78;21236;-67
2022/06/15 02:50:03;;;;;;;5.60;2.47;;;;;;;15.18;56.45;100672.96;1760712;79;21805;-67
2022/06/15 02:52:36;;;;;;;4.70;2.23;;;;;;;15.21;56.46;100676.98;1785322;78;21219;-67
2022/06/15 02:55:06;;;;;;;5.00;2.10;;;;;;;15.25;56.57;100680.70;1760252;80;21416;-67
2022/06/15 02:57:46;;;;;;;6.70;2.93;;;;;;;15.26;56.51;100693.05;1788454;78;21408;-67
2022/06/15 03:00:15;;;;;;;4.22;2.50;;;;;;;15.21;56.60;100688.54;1790125;78;21327;-67
2022/06/15 03:02:44;;;;;;;7.90;2.40;;;;;;;15.18;56.70;100684.27;1792024;78;21062;-68
2022/06/15 03:05:12;;;;;;;5.87;2.67;;;;;;;15.13;56.86;100687.80;1760681;80;21594;-67
2022/06/15 03:07:39;;;;;;;4.13;2.10;;;;;;;15.11;57.04;100694.02;1791187;78;21280;-68
2022/06/15 03:10:08;;;;;;;6.17;2.57;;;;;;;15.09;57.46;100694.84;1755983;80;21417;-68
2022/06/15 03:12:35;;;;;;;4.50;2.33;;;;;;;15.08;57.79;100682.48;1791482;78;21260;-67
2022/06/15 03:15:05;;;;;;;6.00;2.63;;;;;;;15.12;57.79;100685.41;1792301;78;21286;-67
2022/06/15 03:17:33;;;;;;;5.77;2.50;;;;;;;15.15;57.68;100691.02;1789472;78;21127;-67
2022/06/15 03:20:09;;;;;;;3.87;2.30;;;;;;;15.21;57.72;100691.78;1791269;78;21748;-67
2022/06/15 03:22:36;;;;;;;4.13;2.20;;;;;;;15.29;57.73;100697.87;1788933;78;21307;-68
2022/06/15 03:25:06;;;;;;;5.30;2.47;;;;;;;15.38;57.86;100694.02;1784029;78;21706;-67
2022/06/15 03:27:34;;;;;;;6.03;2.87;;;;;;;15.44;57.49;100696.38;1774628;79;21337;-69
2022/06/15 03:30:04;;;;;;;5.67;2.60;;;;;;;15.47;57.50;100695.80;1792141;77;21268;-68
2022/06/15 03:32:34;;;;;;;5.70;2.33;;;;;;;15.52;57.50;100694.94;1791532;78;21690;-68
2022/06/15 03:35:03;;;;;;;7.43;2.60;;;;;;;15.53;57.35;100700.59;1793872;79;21315;-68
2022/06/15 03:37:32;;;;;;;4.27;2.50;;;;;;;15.56;57.34;100700.00;1792672;78;21882;-68
2022/06/15 03:40:00;;;;;;;4.03;2.00;;;;;;;15.60;57.12;100699.70;1787371;78;21263;-68
2022/06/15 03:42:31;;;;;;;6.07;2.40;;;;;;;15.62;56.51;100693.47;1791430;78;21287;-68
2022/06/15 03:44:58;;;;;;;6.90;2.63;;;;;;;15.63;56.50;100704.52;1791486;78;21254;-68
2022/06/15 03:47:26;;;;;;;4.53;1.97;;;;;;;15.64;56.77;100707.45;1790140;78;21610;-68
2022/06/15 03:49:54;;;;;;;4.97;2.10;;;;;;;15.73;56.77;100712.23;1790861;78;22356;-68
2022/06/15 03:52:24;;;;;;;4.50;2.07;;;;;;;15.79;56.39;100709.73;1791014;78;21288;-68
2022/06/15 03:54:50;;;;;;;4.47;2.10;;;;;;;15.83;56.42;100709.44;1793737;80;21296;-68
2022/06/15 03:57:19;;;;;;;4.57;2.20;;;;;;;15.85;55.96;100712.63;1788882;79;21272;-68
2022/06/15 03:59:46;;;;;;;5.40;1.97;;;;;;;15.84;55.75;100711.83;1786373;78;21214;-68
2022/06/15 04:02:23;;;;;;;3.47;2.17;;;;;;;15.85;55.56;100710.73;1740850;78;21278;-68
2022/06/15 04:04:51;;;;;;;3.57;2.07;;;;;;;15.92;55.83;100715.77;1791591;78;21293;-68
2022/06/15 04:10:03;;;;;;;5.50;2.40;;;;;;;15.98;55.50;100712.47;1789095;79;21663;-68
2022/06/15 04:12:31;;;;;;;5.83;2.37;;;;;;;15.98;55.76;100713.27;1794121;78;21205;-68
2022/06/15 04:14:59;;;;;;;3.87;2.20;;;;;;;16.06;55.88;100713.19;1788388;78;21439;-67
2022/06/15 04:17:31;;;;;;;6.80;2.73;;;;;;;16.17;55.79;100707.36;1788775;78;21243;-69
2022/06/15 04:22:52;;;;;;;4.63;2.37;;;;;;;16.42;55.68;100705.41;1790679;78;21049;-67
2022/06/15 04:25:18;;;;;;;5.20;2.17;;;;;;;16.63;55.50;100718.02;1792442;78;21452;-67
2022/06/15 04:27:46;;;;;;;5.33;2.53;;;;;;;16.64;54.32;100713.67;1784068;78;21888;-68
2022/06/15 04:30:14;;;;;;;5.10;2.27;;;;;;;16.64;54.32;100713.67;1784159;78;21354;-67
2022/06/15 04:32:42;;;;;;;5.07;1.97;;;;;;;16.69;54.39;100706.62;1784473;78;21514;-67
2022/06/15 04:35:09;;;;;;;4.70;2.13;;;;;;;16.68;54.24;100713.88;1773356;79;21544;-67
2022/06/15 04:37:41;;;;;;;4.30;1.87;;;;;;;16.71;54.39;100707.11;1791905;78;21559;-67
2022/06/15 04:40:08;;;;;;;4.33;2.07;;;;;;;16.71;54.39;100707.11;1791317;78;21395;-68
2022/06/15 04:42:39;;;;;;;6.97;2.13;;;;;;;16.73;54.33;100709.77;1791254;78;21483;-67
2022/06/15 04:45:08;;;;;;;3.33;1.93;;;;;;;16.73;54.33;100709.77;1791045;78;21485;-68
2022/06/15 04:47:37;;;;;;;3.40;1.87;;;;;;;16.80;54.00;100716.17;1791777;78;21544;-68
2022/06/15 04:50:05;;;;;;;3.33;1.70;;;;;;;16.87;53.55;100710.64;1762763;78;21081;-68
2022/06/15 04:52:34;;;;;;;6.63;2.20;;;;;;;16.91;53.18;100721.64;1790827;78;21558;-68
2022/06/15 04:55:01;;;;;;;5.07;2.10;;;;;;;16.91;52.85;100713.55;1791871;78;22114;-68
2022/06/15 04:57:30;;;;;;;4.83;1.90;;;;;;;16.96;52.85;100716.73;1790775;78;21780;-68
2022/06/15 04:59:57;;;;;;;5.03;2.20;;;;;;;17.04;53.05;100724.92;1792680;78;21662;-68
2022/06/15 05:02:24;;;;;;;3.30;1.80;;;;;;;17.04;53.05;100724.92;1791846;78;21678;-68
2022/06/15 05:04:50;;;;;;;5.57;2.20;;;;;;;17.12;53.29;100720.77;1772332;79;21657;-68
2022/06/15 05:07:18;;;;;;;3.07;1.70;;;;;;;17.19;52.73;100723.08;1791271;78;21811;-68
2022/06/15 05:09:47;;;;;;;4.47;2.17;;;;;;;17.24;52.27;100716.22;1792516;77;21710;-68
2022/06/15 05:12:16;;;;;;;4.72;1.95;;;;;;;17.30;52.58;100717.73;1791306;78;21682;-68
2022/06/15 05:14:48;;;;;;;6.17;2.10;;;;;;;17.38;52.17;100720.32;1791649;78;21035;-67
2022/06/15 05:17:17;;;;;;;5.17;2.33;;;;;;;17.42;52.29;100721.31;1791581;78;22212;-68
2022/06/15 05:19:45;;;;;;;6.00;2.40;;;;;;;17.49;51.84;100721.72;1789164;77;21730;-69
2022/06/15 05:22:12;;;;;;;4.50;1.90;;;;;;;17.53;51.55;100719.45;1790817;78;21835;-68
2022/06/15 05:24:39;;;;;;;4.83;2.37;;;;;;;17.59;51.90;100723.66;1791468;78;21634;-67
2022/06/15 05:27:08;;;;;;;5.27;2.40;;;;;;;17.67;51.22;100734.86;1790713;78;22172;-67
2022/06/15 05:29:36;;;;;;;5.57;2.30;;;;;;;17.75;51.18;100726.08;1787785;77;21704;-69
2022/06/15 05:32:08;;;;;;;5.30;2.37;;;;;;;17.85;51.41;100729.16;1791261;78;21751;-68
2022/06/15 05:34:36;;;;;;;4.37;2.20;;;;;;;18.01;50.47;100733.94;1791048;78;21724;-68
2022/06/15 05:37:05;;;;;;;6.13;2.50;;;;;;;18.01;50.47;100733.94;1791969;78;21003;-68
2022/06/15 05:39:34;;;;;;;4.13;2.30;;;;;;;18.11;50.91;100735.63;1790982;78;21642;-67
2022/06/15 05:42:03;;;;;;;4.67;2.30;;;;;;;18.28;49.70;100739.05;1791992;78;21590;-68
2022/06/15 05:47:04;;;;;;;5.53;2.40;;;;;;;18.31;49.46;100735.73;1792274;78;21707;-68
2022/06/15 05:49:36;;;;;;;3.83;2.00;;;;;;;18.33;48.85;100729.48;1787990;77;21694;-68
2022/06/15 05:52:05;;;;;;;7.70;2.10;;;;;;;18.36;49.22;100730.23;1768759;79;21708;-67
2022/06/15 05:54:32;;;;;;;4.67;1.77;;;;;;;18.42;48.96;100741.72;1773134;79;21010;-67
2022/06/15 05:56:59;;;;;;;5.30;2.13;;;;;;;18.49;47.53;100740.20;1763586;80;21081;-67
2022/06/15 05:59:25;;;;;;;5.07;2.27;;;;;;;18.58;47.60;100736.20;1791467;78;21063;-67
2022/06/15 06:01:52;;;;;;;3.63;2.00;;;;;;;18.72;47.34;100737.00;1791210;78;21580;-69
2022/06/15 06:04:19;;;;;;;4.83;1.90;;;;;;;18.72;47.34;100737.00;1787610;78;21807;-68
2022/06/15 06:06:48;;;;;;;5.80;2.10;;;;;;;18.83;47.26;100744.88;1793435;78;21073;-68
2022/06/15 06:09:15;;;;;;;5.17;2.30;;;;;;;18.91;47.77;100736.80;1795079;79;21080;-68
2022/06/15 06:11:43;;;;;;;4.10;1.90;;;;;;;19.02;47.20;100740.07;1793152;79;21046;-69
2022/06/15 06:14:10;;;;;;;6.87;2.03;;;;;;;19.10;46.41;100739.31;1788541;78;20982;-68
2022/06/15 06:16:37;;;;;;;4.03;2.20;;;;;;;19.14;46.40;100733.52;1794244;80;22115;-67
2022/06/15 06:19:04;;;;;;;5.37;2.17;;;;;;;19.17;46.58;100738.31;1794054;79;20962;-68
2022/06/15 06:21:31;;;;;;;3.47;1.60;;;;;;;19.16;46.78;100730.51;1794334;79;20938;-69
2022/06/15 06:23:57;;;;;;;4.83;1.80;;;;;;;19.21;46.07;100735.22;1792921;79;20936;-67
2022/06/15 06:26:27;;;;;;;4.87;1.80;;;;;;;19.25;45.32;100740.02;1793511;79;21188;-68
2022/06/15 06:28:53;;;;;;;3.63;1.30;;;;;;;19.24;45.06;100736.51;1793816;80;21073;-68
2022/06/15 06:31:20;;;;;;;5.10;1.87;;;;;;;19.19;44.54;100743.42;1786771;80;20960;-68
2022/06/15 06:33:48;;;;;;;4.60;1.80;;;;;;;19.18;44.17;100752.64;1792132;78;21034;-68
2022/06/15 06:36:32;;;;;;;6.67;1.90;;;;;;;19.19;44.39;100750.20;1792281;78;21085;-67
2022/06/15 06:39:00;;;;;;;4.23;1.70;;;;;;;19.23;45.63;100749.02;1789932;78;21049;-67
2022/06/15 06:41:29;;;;;;;6.43;1.70;;;;;;;19.34;45.53;100747.08;1791080;78;21179;-68
2022/06/15 06:43:57;;;;;;;4.00;1.70;;;;;;;19.47;44.71;100754.87;1792047;78;21074;-69
2022/06/15 06:46:23;;;;;;;4.43;1.53;;;;;;;19.56;44.34;100746.23;1791507;78;21081;-68
2022/06/15 06:48:50;;;;;;;4.23;1.40;;;;;;;19.63;43.89;100736.30;1761436;80;21001;-68
2022/06/15 06:51:17;;;;;;;4.67;1.60;;;;;;;19.67;44.16;100738.08;1791721;78;21055;-68
2022/06/15 06:53:43;;;;;;;3.20;1.40;;;;;;;19.77;44.03;100741.63;1760978;80;21298;-68
2022/06/15 06:56:11;;;;;;;6.03;2.07;;;;;;;19.83;43.21;100741.16;1782362;79;20948;-68
2022/06/15 06:58:39;;;;;;;4.37;1.40;;;;;;;19.92;43.50;100745.27;1762032;80;20992;-68
2022/06/15 07:01:05;;;;;;;5.03;1.70;;;;;;;20.01;42.27;100746.09;1752365;80;21029;-67
2022/06/15 07:03:32;;;;;;;4.20;1.67;;;;;;;20.06;41.89;100748.64;1763020;80;21002;-68
2022/06/15 07:06:05;;;;;;;6.47;1.73;;;;;;;20.08;41.52;100749.70;1743854;80;21160;-68
2022/06/15 07:08:32;;;;;;;6.40;1.60;;;;;;;20.08;41.56;100751.84;1748026;80;21050;-68
2022/06/15 07:11:00;;;;;;;5.93;1.27;;;;;;;20.15;41.57;100750.02;1773601;79;21050;-68
2022/06/15 07:13:26;;;;;;;3.83;1.50;;;;;;;20.21;41.06;100735.77;1773861;79;21061;-69
2022/06/15 07:15:53;;;;;;;5.10;1.80;;;;;;;20.23;40.95;100743.80;1774256;79;21668;-68
2022/06/15 07:18:21;;;;;;;5.90;1.83;;;;;;;20.30;41.07;100744.69;1775164;79;21163;-68
2022/06/15 07:20:49;;;;;;;4.50;1.60;;;;;;;20.34;41.14;100743.75;1791909;78;20999;-67
2022/06/15 07:23:17;;;;;;;6.87;1.77;;;;;;;20.41;40.45;100747.34;1789963;78;21018;-67
2022/06/15 07:25:43;;;;;;;4.20;1.80;;;;;;;20.46;40.20;100745.81;1784670;78;21081;-67
2022/06/15 07:28:09;;;;;;;4.63;1.80;;;;;;;20.50;40.64;100743.26;1790422;78;21069;-68
2022/06/15 07:30:36;;;;;;;3.40;1.53;;;;;;;20.59;40.73;100741.38;1791992;78;22158;-69
2022/06/15 07:33:03;;;;;;;5.13;1.80;;;;;;;20.67;39.94;100747.94;1790006;78;21501;-68
2022/06/15 07:35:32;;;;;;;3.93;1.60;;;;;;;20.69;40.30;100747.05;1787928;78;21525;-68
2022/06/15 07:37:59;;;;;;;6.57;1.70;;;;;;;20.69;39.97;100741.05;1788204;78;21351;-68
2022/06/15 07:40:25;;;;;;;4.87;1.50;;;;;;;20.76;39.48;100740.03;1791486;78;21505;-68
2022/06/15 07:42:54;;;;;;;5.17;1.80;;;;;;;20.83;40.52;100740.34;1781638;78;21767;-68
2022/06/15 07:45:22;;;;;;;5.07;1.80;;;;;;;20.99;39.79;100735.21;1778701;79;21604;-68
2022/06/15 07:50:33;;;;;;;3.90;1.60;;;;;;;21.12;38.32;100742.11;1778795;79;20971;-67
2022/06/15 07:53:02;;;;;;;4.33;1.30;;;;;;;21.11;38.05;100731.02;1771789;78;21065;-69
2022/06/15 07:55:32;;;;;;;3.60;1.50;;;;;;;21.12;38.24;100737.47;1791188;78;21219;-69
2022/06/15 07:58:00;;;;;;;6.83;1.90;;;;;;;21.11;38.60;100737.81;1790563;79;20910;-67
2022/06/15 08:00:28;;;;;;;3.57;1.40;;;;;;;21.17;39.11;100730.52;1793262;79;21375;-69
2022/06/15 08:02:55;;;;;;;4.13;1.37;;;;;;;21.24;38.19;100715.88;1792577;78;20983;-67
2022/06/15 08:05:22;;;;;;;4.23;1.20;;;;;;;21.33;37.62;100725.93;1788631;78;20990;-68
2022/06/15 08:07:49;;;;;;;3.97;1.37;;;;;;;21.40;37.87;100720.81;1788488;78;21261;-68
2022/06/15 08:10:19;;;;;;;5.27;1.60;;;;;;;21.42;37.28;100723.45;1791735;78;21039;-68
2022/06/15 08:12:46;;;;;;;4.70;1.47;;;;;;;21.44;36.97;100719.03;1792437;78;21796;-68
2022/06/15 08:15:14;;;;;;;4.07;1.40;;;;;;;21.51;37.18;100716.03;1793773;79;21216;-68
2022/06/15 08:17:49;;;;;;;2.60;1.00;;;;;;;21.59;35.52;100718.50;1791699;78;21468;-68
2022/06/15 08:20:31;;;;;;;2.97;1.00;;;;;;;21.67;35.28;100714.13;1760373;80;21564;-68
2022/06/15 08:23:04;;;;;;;6.40;1.40;;;;;;;21.63;34.93;100716.71;1793301;78;21046;-69
2022/06/15 08:25:39;;;;;;;4.60;1.20;;;;;;;21.68;36.13;100715.14;1789825;79;21501;-68
2022/06/15 08:28:08;;;;;;;4.50;1.30;;;;;;;21.78;35.45;100709.90;1790861;78;21002;-69
2022/06/15 08:30:37;;;;;;;4.07;1.33;;;;;;;21.90;35.12;100707.28;1749552;78;21091;-68
2022/06/15 08:33:05;;;;;;;4.57;1.30;;;;;;;21.94;36.02;100721.80;1762221;81;21117;-68
2022/06/15 08:35:32;;;;;;;3.43;1.30;;;;;;;21.91;36.32;100718.95;1761931;81;21061;-69
2022/06/15 08:37:58;;;;;;;2.93;1.43;;;;;;;21.89;36.68;100719.86;1761935;81;20959;-68
2022/06/15 08:40:27;;;;;;;3.00;1.27;;;;;;;21.93;36.86;100716.14;1762312;81;21003;-66
2022/06/15 08:43:01;;;;;;;2.53;1.20;;;;;;;22.06;35.80;100721.66;1753162;81;21105;-68
2022/06/15 08:45:41;;;;;;;3.00;1.10;;;;;;;22.12;35.71;100715.70;1767969;80;21162;-67
2022/06/15 08:48:30;;;;;;;2.77;1.00;;;;;;;22.24;35.86;100706.29;1770494;80;21066;-68
2022/06/15 08:51:10;;;;;;;2.57;1.03;;;;;;;22.37;35.19;100710.41;1787451;80;21014;-68
2022/06/15 08:53:53;;;;;;;3.65;1.10;;;;;;;22.40;34.48;100696.14;1770248;80;21541;-67
2022/06/15 08:56:26;;;;;;;7.33;1.23;;;;;;;22.32;34.49;100720.95;1786665;80;21185;-68
2022/06/15 08:58:58;;;;;;;4.60;1.40;;;;;;;22.34;33.92;100711.08;1770438;80;21544;-67
2022/06/15 09:01:43;;;;;;;2.73;1.17;;;;;;;22.40;34.69;100709.18;1787347;79;21034;-68
2022/06/15 09:04:21;;;;;;;2.63;1.13;;;;;;;22.56;33.80;100721.62;1787329;79;21106;-67
2022/06/15 09:07:03;;;;;;;6.07;1.07;;;;;;;22.64;33.59;100709.88;1787607;80;21038;-68
2022/06/15 09:09:56;;;;;;;3.62;1.27;;;;;;;22.68;33.16;100716.23;1790636;78;20998;-66
2022/06/15 09:13:01;;;;;;;5.20;1.07;;;;;;;22.67;33.25;100714.65;1793589;80;21223;-67
2022/06/15 09:15:57;;;;;;;3.13;0.97;;;;;;;22.68;33.10;100710.78;1790250;80;21079;-68
2022/06/15 09:18:42;;;;;;;2.83;1.27;;;;;;;22.85;32.89;100713.11;1786788;80;21532;-67
2022/06/15 09:21:20;;;;;;;4.17;1.30;;;;;;;22.88;32.27;100716.53;1768200;80;20994;-68
2022/06/15 09:23:54;;;;;;;3.43;1.00;;;;;;;22.90;32.74;100716.97;1787221;80;21010;-67
2022/06/15 09:26:30;;;;;;;4.00;1.00;;;;;;;22.96;33.06;100716.23;1787115;80;21136;-67
2022/06/15 09:29:08;;;;;;;4.40;1.27;;;;;;;22.80;33.34;100710.59;1772488;80;20998;-67
2022/06/15 09:31:58;;;;;;;6.33;1.03;;;;;;;22.79;33.60;100708.44;1792216;80;20987;-67
2022/06/15 09:34:38;;;;;;;2.17;1.10;;;;;;;22.90;32.34;100712.88;1793711;80;21030;-68
2022/06/15 09:37:18;;;;;;;2.37;1.00;;;;;;;23.08;31.95;100715.70;1790363;80;20989;-68
2022/06/15 09:39:45;;;;;;;4.20;1.40;;;;;;;23.16;31.91;100718.91;1770800;80;21260;-67
2022/06/15 09:42:19;;;;;;;3.40;1.00;;;;;;;23.18;32.52;100704.36;1789111;78;21536;-67
2022/06/15 09:45:18;;;;;;;2.50;1.13;;;;;;;23.13;32.44;100723.66;1792484;79;20987;-68
2022/06/15 09:48:10;;;;;;;2.10;0.97;;;;;;;23.20;32.41;100710.03;1792603;78;21089;-68
2022/06/15 09:51:10;;;;;;;3.25;1.00;;;;;;;23.31;32.89;100720.16;1792219;78;21725;-67
2022/06/15 09:54:06;;;;;;;2.57;1.10;;;;;;;23.38;31.88;100716.88;1788721;78;21329;-68
2022/06/15 09:56:35;;;;;;;2.30;0.70;;;;;;;23.34;32.01;100713.24;1771486;78;20942;-68
2022/06/15 09:59:06;;;;;;;4.47;1.33;;;;;;;23.44;31.10;100705.98;1740747;78;21451;-67
2022/06/15 10:01:41;;;;;;;3.70;1.07;;;;;;;23.58;31.08;100701.55;1781511;78;21467;-67
2022/06/15 10:04:18;;;;;;;4.57;1.10;;;;;;;23.72;30.85;100723.04;1791371;78;21184;-66
2022/06/15 10:06:52;;;;;;;1.97;1.00;;;;;;;23.79;30.87;100695.44;1777860;78;21920;-67
2022/06/15 10:09:24;;;;;;;1.97;1.00;;;;;;;23.75;30.80;100704.63;1791864;79;20971;-67
2022/06/15 10:14:50;;;;;;;3.10;0.80;;;;;;;23.30;31.79;100700.08;1769667;80;21126;-68
2022/06/15 10:17:30;;;;;;;2.33;0.90;;;;;;;23.27;31.21;100710.29;1806894;79;21132;-68
2022/06/15 10:19:57;;;;;;;1.80;0.97;;;;;;;23.35;30.99;100699.27;1779977;79;21119;-67
2022/06/15 10:22:36;;;;;;;1.53;0.83;;;;;;;23.53;31.29;100694.97;1776218;80;21043;-67
2022/06/15 10:25:04;;;;;;;2.80;1.00;;;;;;;23.70;31.57;100689.88;1776275;80;21519;-67
2022/06/15 10:27:35;;;;;;;1.77;1.00;;;;;;;23.75;30.39;100685.54;1759005;80;21034;-67
2022/06/15 10:30:16;;;;;;;2.67;0.90;;;;;;;23.75;31.03;100678.15;1770767;80;20991;-67
2022/06/15 10:33:13;;;;;;;1.87;0.90;;;;;;;23.78;31.25;100684.86;1787870;79;21265;-66
2022/06/15 10:35:40;;;;;;;2.43;1.00;;;;;;;23.75;32.05;100682.23;1787781;79;21502;-67
2022/06/15 10:38:11;;;;;;;1.47;0.90;;;;;;;23.90;31.69;100693.60;1787514;79;21058;-66
2022/06/15 10:40:40;;;;;;;2.30;1.00;;;;;;;23.97;30.91;100688.36;1787875;80;21046;-67
2022/06/15 10:43:27;;;;;;;3.37;0.90;;;;;;;23.93;31.12;100692.34;1758962;79;21034;-68
2022/06/15 10:45:59;;;;;;;2.90;1.00;;;;;;;23.91;30.87;100685.06;1787937;80;21106;-67
2022/06/15 10:48:49;;;;;;;3.40;0.90;;;;;;;23.71;30.81;100676.46;1788600;78;21050;-68
2022/06/15 10:51:29;;;;;;;2.63;0.87;;;;;;;23.41;32.02;100685.64;1756639;80;21489;-67
2022/06/15 10:54:23;;;;;;;1.05;0.65;;;;;;;23.25;32.15;100688.81;1786323;78;21053;-67
2022/06/15 11:02:39;;;;;;;3.73;0.90;;;;;;;23.37;31.21;100673.05;1790514;78;21092;-66
2022/06/15 11:05:18;;;;;;;3.17;0.90;;;;;;;23.54;30.54;100672.81;1789016;78;20998;-67
2022/06/15 11:08:01;;;;;;;2.57;0.90;;;;;;;23.62;30.87;100665.06;1793506;79;21090;-66
2022/06/15 11:10:39;;;;;;;3.40;1.00;;;;;;;23.66;30.07;100669.29;1793362;78;21562;-67
2022/06/15 11:13:17;;;;;;;3.97;0.80;;;;;;;23.72;29.78;100667.13;1762400;80;21848;-67
2022/06/15 11:18:41;;;;;;;3.77;1.07;;;;;;;23.68;29.55;100668.39;1788968;78;21026;-67
2022/06/15 11:21:21;;;;;;;2.10;0.80;;;;;;;23.57;29.49;100674.85;1791877;78;21112;-67
2022/06/15 11:24:11;;;;;;;2.47;1.00;;;;;;;23.62;29.58;100663.70;1789237;78;21042;-68
2022/06/15 11:27:09;;;;;;;2.25;1.15;;;;;;;23.85;29.79;100676.31;1787101;78;21251;-68
2022/06/15 11:30:00;;;;;;;2.00;0.80;;;;;;;24.06;29.28;100658.44;1790925;78;21003;-67
2022/06/15 11:32:39;;;;;;;2.40;0.90;;;;;;;24.21;28.84;100664.30;1790232;78;21022;-68
2022/06/15 11:35:31;;;;;;;3.43;1.00;;;;;;;24.33;28.89;100666.41;1790370;78;21038;-67
2022/06/15 11:38:39;;;;;;;5.07;1.07;;;;;;;24.42;28.64;100659.48;1783504;78;20998;-67
2022/06/15 11:41:17;;;;;;;2.90;1.00;;;;;;;24.57;28.88;100651.88;1756238;81;21857;-67
2022/06/15 11:43:46;;;;;;;2.73;1.00;;;;;;;24.76;29.64;100655.88;1757640;78;21003;-67
2022/06/15 11:46:45;;;;;;;3.30;0.80;;;;;;;24.83;28.82;100658.01;1785449;78;21473;-67
2022/06/15 11:49:36;;;;;;;3.13;0.80;;;;;;;24.84;28.25;100649.45;1791394;78;20987;-67
2022/06/15 11:52:27;;;;;;;1.57;0.83;;;;;;;24.80;27.67;100658.13;1789101;78;47923;-67
2022/06/15 11:55:24;;;;;;;2.00;0.80;;;;;;;24.82;27.33;100644.92;1789259;78;21243;-68
2022/06/15 11:58:33;;;;;;;1.23;0.77;;;;;;;24.80;27.54;100650.72;1784642;78;20987;-67
2022/06/15 12:01:31;;;;;;;2.20;0.80;;;;;;;24.77;28.17;100640.50;1734991;81;21493;-67
2022/06/15 12:04:09;;;;;;;1.87;0.80;;;;;;;24.64;28.87;100641.71;1762986;79;21078;-67
2022/06/15 12:07:16;;;;;;;1.30;0.80;;;;;;;24.51;28.90;100647.84;1757130;79;21030;-67
2022/06/15 12:10:03;;;;;;;3.63;1.03;;;;;;;24.43;29.06;100645.25;1738591;82;21013;-68
2022/06/15 12:12:39;;;;;;;4.33;1.13;;;;;;;24.34;29.64;100650.82;1721777;83;21525;-67
2022/06/15 12:15:35;;;;;;;4.67;1.00;;;;;;;24.15;29.65;100652.81;1763911;78;21117;-67
2022/06/15 12:18:27;;;;;;;3.33;1.20;;;;;;;24.00;29.60;100642.66;1745792;80;21051;-67